createdAt,value
2017-08-29T00:00:23.881Z,99.90
2017-08-29T00:02:51.467Z,99.90
2017-08-29T00:05:19.125Z,99.90
2017-08-29T00:07:46.726Z,99.90
2017-08-29T00:10:14.318Z,99.90
2017-08-29T00:12:41.906Z,99.90
2017-08-29T00:15:09.487Z,99.90
2017-08-29T00:17:37.033Z,99.90
2017-08-29T00:20:05.323Z,99.90
2017-08-29T00:22:32.879Z,99.90
2017-08-29T00:25:00.507Z,99.90
2017-08-29T00:27:28.083Z,99.90
2017-08-29T00:29:55.630Z,99.90
2017-08-29T00:32:23.170Z,99.90
2017-08-29T00:34:50.729Z,99.90
2017-08-29T00:37:18.321Z,99.90
2017-08-29T00:39:45.882Z,99.90
2017-08-29T00:42:13.512Z,99.90
2017-08-29T00:44:41.094Z,99.90
2017-08-29T00:47:08.663Z,99.90
2017-08-29T00:49:36.222Z,99.90
2017-08-29T00:52:03.794Z,99.90
2017-08-29T00:54:31.371Z,99.90
2017-08-29T00:56:58.935Z,99.90
2017-08-29T00:59:26.634Z,99.90
2017-08-29T01:01:54.175Z,99.90
2017-08-29T01:04:21.765Z,99.90
2017-08-29T01:06:49.319Z,99.90
2017-08-29T01:09:16.914Z,99.90
2017-08-29T01:11:44.483Z,99.90
2017-08-29T01:14:12.044Z,99.90
2017-08-29T01:16:39.631Z,99.90
2017-08-29T01:19:07.186Z,99.90
2017-08-29T01:21:34.786Z,99.90
2017-08-29T01:24:02.358Z,99.90
2017-08-29T01:26:30.137Z,99.90
2017-08-29T01:28:57.718Z,99.90
2017-08-29T01:31:25.302Z,99.90
2017-08-29T01:33:52.885Z,99.90
2017-08-29T01:36:20.463Z,99.90
2017-08-29T01:38:48.074Z,99.90
2017-08-29T01:41:15.618Z,99.90
2017-08-29T01:43:43.172Z,99.90
2017-08-29T01:46:10.729Z,99.90
2017-08-29T01:48:38.300Z,99.90
2017-08-29T01:51:05.870Z,99.90
2017-08-29T01:53:33.448Z,99.90
2017-08-29T01:56:01.006Z,99.90
2017-08-29T01:58:28.575Z,99.90
2017-08-29T02:00:56.134Z,99.90
2017-08-29T02:03:23.715Z,99.90
2017-08-29T02:05:51.262Z,99.90
2017-08-29T02:08:18.989Z,99.90
2017-08-29T02:10:46.543Z,99.90
2017-08-29T02:13:14.131Z,99.90
2017-08-29T02:15:41.699Z,99.90
2017-08-29T02:18:09.278Z,99.90
2017-08-29T02:20:36.978Z,99.90
2017-08-29T02:23:04.538Z,99.90
2017-08-29T02:25:32.142Z,99.90
2017-08-29T02:27:59.701Z,99.90
2017-08-29T02:30:27.317Z,99.90
2017-08-29T02:32:54.884Z,99.90
2017-08-29T02:35:22.446Z,99.90
2017-08-29T02:37:50.040Z,99.90
2017-08-29T02:40:17.602Z,99.90
2017-08-29T02:42:45.335Z,99.90
2017-08-29T02:45:12.924Z,99.90
2017-08-29T02:47:40.497Z,99.90
2017-08-29T02:50:08.079Z,99.90
2017-08-29T02:52:35.645Z,99.90
2017-08-29T02:55:03.291Z,99.90
2017-08-29T02:57:30.907Z,99.90
2017-08-29T02:59:58.478Z,99.90
2017-08-29T03:02:26.067Z,99.90
2017-08-29T03:04:53.633Z,99.90
2017-08-29T03:07:21.361Z,99.90
2017-08-29T03:09:48.954Z,99.90
2017-08-29T03:12:16.522Z,99.90
2017-08-29T03:14:44.125Z,99.90
2017-08-29T03:17:11.711Z,99.90
2017-08-29T03:19:39.310Z,99.90
2017-08-29T03:22:06.872Z,99.90
2017-08-29T03:24:34.444Z,99.90
2017-08-29T03:27:02.017Z,99.90
2017-08-29T03:29:29.577Z,99.90
2017-08-29T03:31:57.182Z,99.90
2017-08-29T03:34:24.746Z,99.90
2017-08-29T03:36:52.315Z,99.90
2017-08-29T03:39:19.885Z,99.90
2017-08-29T03:41:47.517Z,99.90
2017-08-29T03:44:15.105Z,99.90
2017-08-29T03:46:42.706Z,99.90
2017-08-29T03:49:10.298Z,99.90
2017-08-29T03:51:37.897Z,99.90
2017-08-29T03:54:06.382Z,99.90
2017-08-29T03:56:33.933Z,99.90
2017-08-29T03:59:01.581Z,99.90
2017-08-29T04:01:29.139Z,99.90
2017-08-29T04:03:56.695Z,99.90
2017-08-29T04:06:24.439Z,99.90
2017-08-29T04:08:52.008Z,99.90
2017-08-29T04:11:19.666Z,99.90
2017-08-29T04:13:47.275Z,99.90
2017-08-29T04:16:14.898Z,99.90
2017-08-29T04:18:42.461Z,99.90
2017-08-29T04:21:10.023Z,99.90
2017-08-29T04:23:37.606Z,99.90
2017-08-29T04:26:05.345Z,99.90
2017-08-29T04:28:32.924Z,99.90
2017-08-29T04:31:00.475Z,99.90
2017-08-29T04:33:28.053Z,99.90
2017-08-29T04:35:55.618Z,99.90
2017-08-29T04:38:23.198Z,99.90
2017-08-29T04:40:50.808Z,99.90
2017-08-29T04:43:18.477Z,99.90
2017-08-29T04:45:46.058Z,99.90
2017-08-29T04:48:13.630Z,99.90
2017-08-29T04:50:41.234Z,99.90
2017-08-29T04:53:08.805Z,99.90
2017-08-29T04:55:36.384Z,99.90
2017-08-29T04:58:03.986Z,99.90
2017-08-29T05:00:31.535Z,99.90
2017-08-29T05:02:59.301Z,99.90
2017-08-29T05:05:26.916Z,99.90
2017-08-29T05:07:55.527Z,99.90
2017-08-29T05:10:23.177Z,99.90
2017-08-29T05:12:50.762Z,99.90
2017-08-29T05:15:18.367Z,99.90
2017-08-29T05:17:45.930Z,99.90
2017-08-29T05:20:13.522Z,99.90
2017-08-29T05:22:41.118Z,99.90
2017-08-29T05:25:08.703Z,99.90
2017-08-29T05:27:36.294Z,99.90
2017-08-29T05:30:03.883Z,99.90
2017-08-29T05:32:31.474Z,99.90
2017-08-29T05:34:59.034Z,99.90
2017-08-29T05:37:26.616Z,99.90
2017-08-29T05:39:54.387Z,99.90
2017-08-29T05:42:21.937Z,99.90
2017-08-29T05:44:49.533Z,99.90
2017-08-29T05:47:17.201Z,99.90
2017-08-29T05:49:44.772Z,99.90
2017-08-29T05:52:12.426Z,99.90
2017-08-29T05:54:40.077Z,99.90
2017-08-29T05:57:07.647Z,99.90
2017-08-29T05:59:35.229Z,99.90
2017-08-29T06:02:02.802Z,99.90
2017-08-29T06:04:30.366Z,99.90
2017-08-29T06:06:57.954Z,99.90
2017-08-29T06:09:25.510Z,99.90
2017-08-29T06:11:53.074Z,99.90
2017-08-29T06:14:20.686Z,99.90
2017-08-29T06:16:48.277Z,99.90
2017-08-29T06:19:15.838Z,99.90
2017-08-29T06:21:43.406Z,99.90
2017-08-29T06:24:10.988Z,99.90
2017-08-29T06:26:38.586Z,99.90
2017-08-29T06:29:06.183Z,99.90
2017-08-29T06:31:33.750Z,99.90
2017-08-29T06:34:01.328Z,99.90
2017-08-29T06:36:28.906Z,99.90
2017-08-29T06:38:56.469Z,99.90
2017-08-29T06:41:24.074Z,99.90
2017-08-29T06:43:51.650Z,99.90
2017-08-29T06:46:19.241Z,99.90
2017-08-29T06:48:46.802Z,99.90
2017-08-29T06:51:14.387Z,99.90
2017-08-29T06:53:41.984Z,99.90
2017-08-29T06:56:09.590Z,99.90
2017-08-29T06:58:37.174Z,99.90
2017-08-29T07:01:04.744Z,99.90
2017-08-29T07:03:32.329Z,99.90
2017-08-29T07:05:59.917Z,99.90
2017-08-29T07:08:27.500Z,99.90
2017-08-29T07:10:55.059Z,99.90
2017-08-29T07:13:22.650Z,99.90
2017-08-29T07:15:50.204Z,99.90
2017-08-29T07:18:17.767Z,99.90
2017-08-29T07:20:45.385Z,99.90
2017-08-29T07:23:12.978Z,99.90
2017-08-29T07:25:40.590Z,99.90
2017-08-29T07:28:08.177Z,99.00
2017-08-29T07:30:35.743Z,98.10
2017-08-29T07:33:03.303Z,97.90
2017-08-29T07:35:30.887Z,95.60
2017-08-29T07:37:58.462Z,98.10
2017-08-29T07:40:26.025Z,98.00
2017-08-29T07:42:53.613Z,97.50
2017-08-29T07:45:21.165Z,97.40
2017-08-29T07:47:48.734Z,96.10
2017-08-29T07:50:16.311Z,95.10
2017-08-29T07:52:43.857Z,91.10
2017-08-29T07:55:11.466Z,91.90
2017-08-29T07:57:39.014Z,86.40
2017-08-29T08:00:06.573Z,90.40
2017-08-29T08:02:34.159Z,92.20
2017-08-29T08:05:01.730Z,92.50
2017-08-29T08:07:30.246Z,92.20
2017-08-29T08:09:57.819Z,86.20
2017-08-29T08:12:25.394Z,89.80
2017-08-29T08:14:52.974Z,85.70
2017-08-29T08:17:20.559Z,87.40
2017-08-29T08:19:48.138Z,84.40
2017-08-29T08:22:15.706Z,82.20
2017-08-29T08:24:43.296Z,82.50
2017-08-29T08:27:10.975Z,81.10
2017-08-29T08:29:38.595Z,81.80
2017-08-29T08:32:06.147Z,76.90
2017-08-29T08:34:33.716Z,76.40
2017-08-29T08:37:01.300Z,77.40
2017-08-29T08:39:28.868Z,73.70
2017-08-29T08:41:56.475Z,72.40
2017-08-29T08:44:24.046Z,72.80
2017-08-29T08:46:51.645Z,69.70
2017-08-29T08:49:19.207Z,67.10
2017-08-29T08:51:46.844Z,67.40
2017-08-29T08:54:14.429Z,63.80
2017-08-29T08:56:41.982Z,66.70
2017-08-29T08:59:09.535Z,68.80
2017-08-29T09:01:37.108Z,62.70
2017-08-29T09:04:04.684Z,63.40
2017-08-29T09:06:32.259Z,61.50
2017-08-29T09:08:59.832Z,61.80
2017-08-29T09:11:27.439Z,61.10
2017-08-29T09:13:55.030Z,59.70
2017-08-29T09:16:22.943Z,59.90
2017-08-29T09:18:50.526Z,57.10
2017-08-29T09:21:18.115Z,56.90
2017-08-29T09:23:45.697Z,59.50
2017-08-29T09:26:14.022Z,64.50
2017-08-29T09:28:42.598Z,61.00
2017-08-29T09:31:11.033Z,58.20
2017-08-29T09:33:38.671Z,59.00
2017-08-29T09:36:06.293Z,59.50
2017-08-29T09:38:33.851Z,58.20
2017-08-29T09:41:01.423Z,57.60
2017-08-29T09:43:28.992Z,58.40
2017-08-29T09:45:56.585Z,57.70
2017-08-29T09:48:24.185Z,57.80
2017-08-29T09:50:51.768Z,54.70
2017-08-29T09:53:19.436Z,56.20
2017-08-29T09:55:47.003Z,55.50
2017-08-29T09:58:14.581Z,55.30
2017-08-29T10:00:42.154Z,53.60
2017-08-29T10:03:09.725Z,57.10
2017-08-29T10:05:37.329Z,51.60
2017-08-29T10:08:04.918Z,51.50
2017-08-29T10:10:32.526Z,54.30
2017-08-29T10:13:00.125Z,54.30
2017-08-29T10:15:27.673Z,56.50
2017-08-29T10:17:55.275Z,54.10
2017-08-29T10:20:22.967Z,53.10
2017-08-29T10:22:50.538Z,52.80
2017-08-29T10:25:18.126Z,50.40
2017-08-29T10:27:45.682Z,50.90
2017-08-29T10:30:13.245Z,50.60
2017-08-29T10:32:40.942Z,50.40
2017-08-29T10:35:08.489Z,48.60
2017-08-29T10:37:36.101Z,49.70
2017-08-29T10:40:03.661Z,50.00
2017-08-29T10:42:31.426Z,52.80
2017-08-29T10:44:59.018Z,53.00
2017-08-29T10:47:26.588Z,51.80
2017-08-29T10:49:54.178Z,50.10
2017-08-29T10:52:21.782Z,49.80
2017-08-29T10:54:50.229Z,49.00
2017-08-29T10:57:17.809Z,52.10
2017-08-29T10:59:45.443Z,52.40
2017-08-29T11:02:13.030Z,52.60
2017-08-29T11:04:40.726Z,50.90
2017-08-29T11:07:08.288Z,51.60
2017-08-29T11:09:36.086Z,53.40
2017-08-29T11:12:03.702Z,50.10
2017-08-29T11:14:31.825Z,51.90
2017-08-29T11:16:59.424Z,51.00
2017-08-29T11:19:27.006Z,53.00
2017-08-29T11:21:57.679Z,52.10
2017-08-29T11:24:25.249Z,51.70
2017-08-29T11:26:52.874Z,49.70
2017-08-29T11:29:20.974Z,51.10
2017-08-29T11:31:48.657Z,52.40
2017-08-29T11:34:16.242Z,50.10
2017-08-29T11:36:43.858Z,51.00
2017-08-29T11:39:11.456Z,49.40
2017-08-29T11:41:39.796Z,51.70
2017-08-29T11:44:07.527Z,51.70
2017-08-29T11:46:35.090Z,50.20
2017-08-29T11:49:02.934Z,47.90
2017-08-29T11:51:30.547Z,51.00
2017-08-29T11:53:58.116Z,48.90
2017-08-29T11:56:25.754Z,48.70
2017-08-29T11:58:53.472Z,49.90
2017-08-29T12:01:21.072Z,52.10
2017-08-29T12:03:48.844Z,48.90
2017-08-29T12:06:16.616Z,49.20
2017-08-29T12:08:44.322Z,50.40
2017-08-29T12:11:12.090Z,50.50
2017-08-29T12:13:39.666Z,50.30
2017-08-29T12:16:07.510Z,52.70
2017-08-29T12:18:35.087Z,48.90
2017-08-29T12:21:02.865Z,47.20
2017-08-29T12:23:30.510Z,50.50
2017-08-29T12:25:59.049Z,48.00
2017-08-29T12:28:26.857Z,49.90
2017-08-29T12:30:54.444Z,48.10
2017-08-29T12:33:22.244Z,49.60
2017-08-29T12:35:49.826Z,49.80
2017-08-29T12:38:17.406Z,50.20
2017-08-29T12:40:44.997Z,48.00
2017-08-29T12:43:12.571Z,49.10
2017-08-29T12:45:40.174Z,48.60
2017-08-29T12:48:07.948Z,48.90
2017-08-29T12:50:35.542Z,49.00
2017-08-29T12:53:03.117Z,50.70
2017-08-29T12:55:30.702Z,49.80
2017-08-29T12:57:58.281Z,50.10
2017-08-29T13:00:25.872Z,48.70
2017-08-29T13:02:53.452Z,50.70
2017-08-29T13:05:21.025Z,46.40
2017-08-29T13:07:48.646Z,47.20
2017-08-29T13:10:16.197Z,48.30
2017-08-29T13:12:43.770Z,47.40
2017-08-29T13:15:11.367Z,48.80
2017-08-29T13:17:38.951Z,50.00
2017-08-29T13:20:06.507Z,48.70
2017-08-29T13:22:34.063Z,48.50
2017-08-29T13:25:01.712Z,48.60
2017-08-29T13:27:29.282Z,47.50
2017-08-29T13:29:56.823Z,48.20
2017-08-29T13:32:24.432Z,49.00
2017-08-29T13:34:51.985Z,46.70
2017-08-29T13:37:19.642Z,49.00
2017-08-29T13:39:47.361Z,46.90
2017-08-29T13:42:15.340Z,45.20
2017-08-29T13:44:42.912Z,44.60
2017-08-29T13:47:10.480Z,44.90
2017-08-29T13:49:38.136Z,43.60
2017-08-29T13:52:05.865Z,46.90
2017-08-29T13:54:33.471Z,46.50
2017-08-29T13:57:01.196Z,45.00
2017-08-29T13:59:28.829Z,44.70
2017-08-29T14:01:56.519Z,46.90
2017-08-29T14:04:24.127Z,47.20
2017-08-29T14:06:51.703Z,47.90
2017-08-29T14:09:19.262Z,47.20
2017-08-29T14:11:46.862Z,45.80
2017-08-29T14:14:14.459Z,47.10
2017-08-29T14:16:42.175Z,47.20
2017-08-29T14:19:09.745Z,46.20
2017-08-29T14:21:37.372Z,46.00
2017-08-29T14:24:05.054Z,44.80
2017-08-29T14:26:32.642Z,48.60
2017-08-29T14:29:00.254Z,50.10
2017-08-29T14:31:27.790Z,51.20
2017-08-29T14:33:55.384Z,50.90
2017-08-29T14:36:23.039Z,51.50
2017-08-29T14:38:50.620Z,51.60
2017-08-29T14:41:18.217Z,51.90
2017-08-29T14:43:45.770Z,53.50
2017-08-29T14:46:13.340Z,55.10
2017-08-29T14:48:53.144Z,53.10
2017-08-29T14:51:20.715Z,51.40
2017-08-29T14:53:48.283Z,49.90
2017-08-29T14:56:15.862Z,50.70
2017-08-29T14:58:43.469Z,51.70
2017-08-29T15:01:11.034Z,53.30
2017-08-29T15:03:38.626Z,52.90
2017-08-29T15:06:06.215Z,52.50
2017-08-29T15:08:35.073Z,52.00
2017-08-29T15:11:02.659Z,52.20
2017-08-29T15:13:30.211Z,53.30
2017-08-29T15:15:57.783Z,54.10
2017-08-29T15:18:25.361Z,52.60
2017-08-29T15:20:52.979Z,54.40
2017-08-29T15:23:20.558Z,54.40
2017-08-29T15:25:48.122Z,53.30
2017-08-29T15:28:15.686Z,52.20
2017-08-29T15:30:43.283Z,52.90
2017-08-29T15:33:10.980Z,53.60
2017-08-29T15:35:38.569Z,54.80
2017-08-29T15:38:06.154Z,54.40
2017-08-29T15:40:33.731Z,53.80
2017-08-29T15:43:01.305Z,55.20
2017-08-29T15:45:28.931Z,53.90
2017-08-29T15:47:56.510Z,54.90
2017-08-29T15:50:24.084Z,53.50
2017-08-29T15:52:51.672Z,54.10
2017-08-29T15:55:19.227Z,54.20
2017-08-29T15:57:46.783Z,54.40
2017-08-29T16:00:14.368Z,54.80
2017-08-29T16:02:42.027Z,55.60
2017-08-29T16:05:09.579Z,55.30
2017-08-29T16:07:37.170Z,55.30
2017-08-29T16:10:04.776Z,55.70
2017-08-29T16:12:32.358Z,55.90
2017-08-29T16:14:59.919Z,56.20
2017-08-29T16:17:27.472Z,55.40
2017-08-29T16:19:55.091Z,57.20
2017-08-29T16:22:22.740Z,56.90
2017-08-29T16:24:50.351Z,57.30
2017-08-29T16:27:17.911Z,57.10
2017-08-29T16:29:45.529Z,56.10
2017-08-29T16:32:13.134Z,57.50
2017-08-29T16:34:40.704Z,57.20
2017-08-29T16:37:08.306Z,57.80
2017-08-29T16:39:35.900Z,58.70
2017-08-29T16:42:03.483Z,58.10
2017-08-29T16:44:31.151Z,58.70
2017-08-29T16:46:58.877Z,59.30
2017-08-29T16:49:26.466Z,60.80
2017-08-29T16:51:54.075Z,62.70
2017-08-29T16:54:21.773Z,61.80
2017-08-29T16:56:49.337Z,62.50
2017-08-29T16:59:16.988Z,62.70
2017-08-29T17:01:44.594Z,63.30
2017-08-29T17:04:12.182Z,64.40
2017-08-29T17:06:39.808Z,65.30
2017-08-29T17:09:07.486Z,66.60
2017-08-29T17:11:35.084Z,67.40
2017-08-29T17:14:02.682Z,69.00
2017-08-29T17:16:30.263Z,71.30
2017-08-29T17:18:57.886Z,71.90
2017-08-29T17:21:25.478Z,74.10
2017-08-29T17:23:53.066Z,76.70
2017-08-29T17:26:20.684Z,76.70
2017-08-29T17:28:48.275Z,79.70
2017-08-29T17:31:16.415Z,80.50
2017-08-29T17:33:44.006Z,84.60
2017-08-29T17:36:11.644Z,85.00
2017-08-29T17:38:39.236Z,88.70
2017-08-29T17:41:06.814Z,89.90
2017-08-29T17:43:34.608Z,91.40
2017-08-29T17:46:02.168Z,92.10
2017-08-29T17:48:30.476Z,93.20
2017-08-29T17:50:58.400Z,94.80
2017-08-29T17:53:26.044Z,96.10
2017-08-29T17:55:53.600Z,97.00
2017-08-29T17:58:21.180Z,98.30
2017-08-29T18:00:48.794Z,98.80
2017-08-29T18:03:16.388Z,99.90
2017-08-29T18:05:43.958Z,99.90
2017-08-29T18:08:12.163Z,99.90
2017-08-29T18:10:39.916Z,99.90
2017-08-29T18:13:08.123Z,99.90
2017-08-29T18:15:35.664Z,99.90
2017-08-29T18:18:03.252Z,99.90
2017-08-29T18:20:30.950Z,99.90
2017-08-29T18:22:58.513Z,99.90
2017-08-29T18:25:26.154Z,99.90
2017-08-29T18:27:53.786Z,99.90
2017-08-29T18:30:21.376Z,99.90
2017-08-29T18:32:48.999Z,99.90
2017-08-29T18:35:16.583Z,99.90
2017-08-29T18:37:44.242Z,99.90
2017-08-29T18:40:11.815Z,99.90
2017-08-29T18:42:39.496Z,99.90
2017-08-29T18:45:07.083Z,99.90
2017-08-29T18:47:34.721Z,99.90
2017-08-29T18:50:02.270Z,99.90
2017-08-29T18:52:29.905Z,99.90
2017-08-29T18:54:57.716Z,99.90
2017-08-29T18:57:25.373Z,99.90
2017-08-29T18:59:53.216Z,99.90
2017-08-29T19:02:21.057Z,99.90
2017-08-29T19:04:48.770Z,99.90
2017-08-29T19:07:16.437Z,99.90
2017-08-29T19:09:44.150Z,99.90
2017-08-29T19:12:11.983Z,99.90
2017-08-29T19:14:39.640Z,99.90
2017-08-29T19:17:07.311Z,99.90
2017-08-29T19:19:35.095Z,99.90
2017-08-29T19:22:03.038Z,99.90
2017-08-29T19:24:31.414Z,99.90
2017-08-29T19:27:00.171Z,99.90
2017-08-29T19:29:27.992Z,99.90
2017-08-29T19:31:55.589Z,99.90
2017-08-29T19:34:23.270Z,99.90
2017-08-29T19:36:50.902Z,99.90
2017-08-29T19:39:18.498Z,99.90
2017-08-29T19:41:46.159Z,99.90
2017-08-29T19:44:13.747Z,99.90
2017-08-29T19:46:41.300Z,99.90
2017-08-29T19:49:09.243Z,99.90
2017-08-29T19:51:36.886Z,99.90
2017-08-29T19:54:04.552Z,99.90
2017-08-29T19:56:32.141Z,99.90
2017-08-29T19:58:59.735Z,99.90
2017-08-29T20:01:27.312Z,99.90
2017-08-29T20:03:54.921Z,99.90
2017-08-29T20:06:22.519Z,99.90
2017-08-29T20:08:50.086Z,99.90
2017-08-29T20:11:17.712Z,99.90
2017-08-29T20:13:45.398Z,99.90
2017-08-29T20:16:13.009Z,99.90
2017-08-29T20:18:40.589Z,99.90
2017-08-29T20:21:08.196Z,99.90
2017-08-29T20:23:36.042Z,99.90
2017-08-29T20:26:03.810Z,99.90
2017-08-29T20:28:31.524Z,99.90
2017-08-29T20:30:59.140Z,99.90
2017-08-29T20:33:26.891Z,99.90
2017-08-29T20:35:54.480Z,99.90
2017-08-29T20:38:22.084Z,99.90
2017-08-29T20:40:49.868Z,99.90
2017-08-29T20:43:17.685Z,99.90
2017-08-29T20:45:45.301Z,99.90
2017-08-29T20:48:13.300Z,99.90
2017-08-29T20:50:40.916Z,99.90
2017-08-29T20:53:08.692Z,99.90
2017-08-29T20:55:36.442Z,99.90
2017-08-29T20:58:04.130Z,99.90
2017-08-29T21:00:31.778Z,99.90
2017-08-29T21:02:59.367Z,99.90
2017-08-29T21:05:26.951Z,99.90
2017-08-29T21:07:54.572Z,99.90
2017-08-29T21:10:22.164Z,99.90
2017-08-29T21:12:49.724Z,99.90
2017-08-29T21:15:17.332Z,99.90
2017-08-29T21:17:45.715Z,99.90
2017-08-29T21:20:13.386Z,99.90
2017-08-29T21:22:40.963Z,99.90
2017-08-29T21:25:08.567Z,99.90
2017-08-29T21:27:36.139Z,99.90
2017-08-29T21:30:03.703Z,99.90
2017-08-29T21:32:31.302Z,99.90
2017-08-29T21:34:58.884Z,99.90
2017-08-29T21:37:26.474Z,99.90
2017-08-29T21:39:54.083Z,99.90
2017-08-29T21:42:21.695Z,99.90
2017-08-29T21:44:49.280Z,99.90
2017-08-29T21:47:16.840Z,99.90
2017-08-29T21:49:44.559Z,99.90
2017-08-29T21:52:12.147Z,99.90
2017-08-29T21:54:39.721Z,99.90
2017-08-29T21:57:07.435Z,99.90
2017-08-29T21:59:35.003Z,99.90
2017-08-29T22:02:02.629Z,99.90
2017-08-29T22:04:30.226Z,99.90
2017-08-29T22:06:57.807Z,99.90
2017-08-29T22:09:25.388Z,99.90
2017-08-29T22:11:52.969Z,99.90
2017-08-29T22:14:20.566Z,99.90
2017-08-29T22:16:48.150Z,99.90
2017-08-29T22:19:15.737Z,99.90
2017-08-29T22:21:43.482Z,99.90
2017-08-29T22:24:11.043Z,99.90
2017-08-29T22:26:38.637Z,99.90
2017-08-29T22:29:06.264Z,99.90
2017-08-29T22:31:33.838Z,99.90
2017-08-29T22:34:01.441Z,99.90
2017-08-29T22:36:28.999Z,99.90
2017-08-29T22:38:56.570Z,99.90
2017-08-29T22:41:24.454Z,99.90
2017-08-29T22:43:52.045Z,99.90
2017-08-29T22:46:19.667Z,99.90
2017-08-29T22:48:47.481Z,99.90
2017-08-29T22:51:15.251Z,99.90
2017-08-29T22:53:43.017Z,99.90
2017-08-29T22:56:10.605Z,99.90
2017-08-29T22:58:38.268Z,99.90
2017-08-29T23:01:05.835Z,99.90
2017-08-29T23:03:34.128Z,99.90
2017-08-29T23:06:01.696Z,99.90
2017-08-29T23:08:29.274Z,99.90
2017-08-29T23:10:56.859Z,99.90
2017-08-29T23:13:24.430Z,99.90
2017-08-29T23:15:52.036Z,99.90
2017-08-29T23:18:19.617Z,99.90
2017-08-29T23:20:47.193Z,99.90
2017-08-29T23:23:14.772Z,99.90
2017-08-29T23:25:42.359Z,99.90
2017-08-29T23:28:10.005Z,99.90
2017-08-29T23:30:37.615Z,99.90
2017-08-29T23:33:05.198Z,99.90
2017-08-29T23:35:33.246Z,99.90
2017-08-29T23:38:00.811Z,99.90
2017-08-29T23:40:28.374Z,99.90
2017-08-29T23:42:56.018Z,99.90
2017-08-29T23:45:23.609Z,99.90
2017-08-29T23:47:51.213Z,99.90
2017-08-29T23:50:18.816Z,99.90
2017-08-29T23:52:46.378Z,99.90
2017-08-29T23:55:13.971Z,99.90
2017-08-29T23:57:41.559Z,99.90
